createdAt,value
2018-09-11T00:00:07.931Z,24
2018-09-11T00:02:04.611Z,24
2018-09-11T00:04:07.854Z,24
2018-09-11T00:06:05.521Z,24
2018-09-11T00:08:07.761Z,24
2018-09-11T00:10:05.488Z,24
2018-09-11T00:12:09.818Z,24
2018-09-11T00:14:05.005Z,24
2018-09-11T00:16:04.777Z,24
2018-09-11T00:18:04.739Z,23.9
2018-09-11T00:20:05.405Z,24
2018-09-11T00:22:05.111Z,24
2018-09-11T00:24:07.408Z,24
2018-09-11T00:26:05.093Z,23.9
2018-09-11T00:28:04.803Z,24
2018-09-11T00:30:05.514Z,23.9
2018-09-11T00:32:05.282Z,23.9
2018-09-11T00:34:05.052Z,23.9
2018-09-11T00:36:09.818Z,23.9
2018-09-11T00:38:08.078Z,23.9
2018-09-11T00:40:04.859Z,23.9
2018-09-11T00:42:05.527Z,23.9
2018-09-11T00:44:05.254Z,23.9
2018-09-11T00:46:10.004Z,23.9
2018-09-11T00:48:04.696Z,23.8
2018-09-11T00:50:05.435Z,23.9
2018-09-11T00:52:05.144Z,23.9
2018-09-11T00:54:04.812Z,23.9
2018-09-11T00:56:05.472Z,23.9
2018-09-11T00:58:05.142Z,23.8
2018-09-11T01:00:07.887Z,23.8
2018-09-11T01:02:05.222Z,23.8
2018-09-11T01:04:05.507Z,23.8
2018-09-11T01:06:04.686Z,23.8
2018-09-11T01:08:05.414Z,23.8
2018-09-11T01:10:05.092Z,23.8
2018-09-11T01:12:05.542Z,23.8
2018-09-11T01:14:05.226Z,23.8
2018-09-11T01:16:04.905Z,23.8
2018-09-11T01:18:07.399Z,23.8
2018-09-11T01:20:05.102Z,23.8
2018-09-11T01:22:07.906Z,23.8
2018-09-11T01:24:13.154Z,23.8
2018-09-11T01:26:04.844Z,23.8
2018-09-11T01:28:08.066Z,23.8
2018-09-11T01:30:07.791Z,23.8
2018-09-11T01:32:07.539Z,23.8
2018-09-11T01:34:12.871Z,23.8
2018-09-11T01:36:05.555Z,23.8
2018-09-11T01:38:07.398Z,23.8
2018-09-11T01:40:05.152Z,23.7
2018-09-11T01:42:04.915Z,23.8
2018-09-11T01:44:04.630Z,23.8
2018-09-11T01:46:05.347Z,23.8
2018-09-11T01:48:05.042Z,23.8
2018-09-11T01:50:07.246Z,23.8
2018-09-11T01:52:05.539Z,23.8
2018-09-11T01:54:05.298Z,23.7
2018-09-11T01:56:05.501Z,23.7
2018-09-11T01:58:05.219Z,23.7
2018-09-11T02:00:07.459Z,23.7
2018-09-11T02:02:05.278Z,23.7
2018-09-11T02:04:07.524Z,23.7
2018-09-11T02:06:05.198Z,23.7
2018-09-11T02:08:04.876Z,23.7
2018-09-11T02:10:08.161Z,23.7
2018-09-11T02:12:04.866Z,23.7
2018-09-11T02:14:05.575Z,23.7
2018-09-11T02:16:05.278Z,23.7
2018-09-11T02:18:07.701Z,23.7
2018-09-11T02:20:05.410Z,23.7
2018-09-11T02:22:07.686Z,23.7
2018-09-11T02:24:07.938Z,23.7
2018-09-11T02:26:07.192Z,23.7
2018-09-11T02:28:04.928Z,23.7
2018-09-11T02:30:05.199Z,23.7
2018-09-11T02:32:04.911Z,23.7
2018-09-11T02:34:08.128Z,23.7
2018-09-11T02:36:04.809Z,23.7
2018-09-11T02:38:05.508Z,23.7
2018-09-11T02:40:05.273Z,23.7
2018-09-11T02:42:05.015Z,23.7
2018-09-11T02:44:04.693Z,23.7
2018-09-11T02:46:07.927Z,23.7
2018-09-11T02:48:09.688Z,23.7
2018-09-11T02:50:07.898Z,23.7
2018-09-11T02:52:05.640Z,23.7
2018-09-11T02:54:04.877Z,23.7
2018-09-11T02:56:07.641Z,23.7
2018-09-11T02:58:07.376Z,23.7
2018-09-11T03:00:05.072Z,23.7
2018-09-11T03:02:04.849Z,23.7
2018-09-11T03:04:05.667Z,23.7
2018-09-11T03:06:10.422Z,23.7
2018-09-11T03:08:05.212Z,23.7
2018-09-11T03:10:05.527Z,23.7
2018-09-11T03:12:05.202Z,23.7
2018-09-11T03:14:04.917Z,23.7
2018-09-11T03:16:05.622Z,23.7
2018-09-11T03:18:05.755Z,23.6
2018-09-11T03:20:05.042Z,23.6
2018-09-11T03:22:04.722Z,23.6
2018-09-11T03:24:10.423Z,23.6
2018-09-11T03:26:07.648Z,23.6
2018-09-11T03:28:05.383Z,23.7
2018-09-11T03:30:05.684Z,23.7
2018-09-11T03:32:05.427Z,23.6
2018-09-11T03:34:05.154Z,23.6
2018-09-11T03:36:07.443Z,23.6
2018-09-11T03:38:05.175Z,23.6
2018-09-11T03:40:08.005Z,23.6
2018-09-11T03:42:07.236Z,23.6
2018-09-11T03:44:05.602Z,23.6
2018-09-11T03:46:05.453Z,23.7
2018-09-11T03:48:07.766Z,23.6
2018-09-11T03:50:10.543Z,23.6
2018-09-11T03:52:05.317Z,23.6
2018-09-11T03:54:07.619Z,23.6
2018-09-11T03:56:07.851Z,23.6
2018-09-11T03:58:08.101Z,23.6
2018-09-11T04:00:07.866Z,23.6
2018-09-11T04:02:05.133Z,23.6
2018-09-11T04:04:04.860Z,23.6
2018-09-11T04:06:04.693Z,23.6
2018-09-11T04:08:05.386Z,23.6
2018-09-11T04:10:04.632Z,23.6
2018-09-11T04:12:05.346Z,23.6
2018-09-11T04:14:05.029Z,23.6
2018-09-11T04:16:04.751Z,23.6
2018-09-11T04:18:04.599Z,23.6
2018-09-11T04:20:05.297Z,23.6
2018-09-11T04:22:05.196Z,23.6
2018-09-11T04:24:04.860Z,23.6
2018-09-11T04:26:05.574Z,23.5
2018-09-11T04:28:05.316Z,23.5
2018-09-11T04:30:07.613Z,23.5
2018-09-11T04:32:05.286Z,23.5
2018-09-11T04:34:05.196Z,23.5
2018-09-11T04:36:04.929Z,23.6
2018-09-11T04:38:09.689Z,23.5
2018-09-11T04:40:08.497Z,23.5
2018-09-11T04:42:05.295Z,23.5
2018-09-11T04:44:05.002Z,23.5
2018-09-11T04:46:07.455Z,23.6
2018-09-11T04:48:05.193Z,23.5
2018-09-11T04:50:04.943Z,23.6
2018-09-11T04:52:07.160Z,23.6
2018-09-11T04:54:07.628Z,23.6
2018-09-11T04:56:05.378Z,23.6
2018-09-11T04:58:05.551Z,23.7
2018-09-11T05:00:05.321Z,23.7
2018-09-11T05:02:12.602Z,23.6
2018-09-11T05:04:05.285Z,23.7
2018-09-11T05:06:04.906Z,23.6
2018-09-11T05:08:06.117Z,23.6
2018-09-11T05:10:04.919Z,23.5
2018-09-11T05:12:04.633Z,23.6
2018-09-11T05:14:05.344Z,23.7
2018-09-11T05:16:05.103Z,23.7
2018-09-11T05:18:12.633Z,23.8
2018-09-11T05:20:05.328Z,23.8
2018-09-11T05:22:05.001Z,23.9
2018-09-11T05:24:04.697Z,23.9
2018-09-11T05:26:05.451Z,23.9
2018-09-11T05:28:07.741Z,24
2018-09-11T05:30:07.947Z,24
2018-09-11T05:32:04.602Z,24
2018-09-11T05:34:05.312Z,24
2018-09-11T05:36:04.987Z,24
2018-09-11T05:38:04.701Z,24
2018-09-11T05:40:05.527Z,24
2018-09-11T05:42:05.456Z,24.1
2018-09-11T05:44:04.645Z,24.1
2018-09-11T05:46:05.323Z,24.1
2018-09-11T05:48:04.685Z,24.1
2018-09-11T05:50:07.981Z,24.1
2018-09-11T05:52:04.708Z,24.1
2018-09-11T05:54:15.541Z,24.1
2018-09-11T05:56:05.250Z,24.1
2018-09-11T05:58:04.683Z,24.1
2018-09-11T06:00:05.394Z,24.1
2018-09-11T06:02:05.118Z,24.2
2018-09-11T06:04:04.924Z,24.2
2018-09-11T06:06:04.669Z,24.2
2018-09-11T06:08:05.366Z,24.2
2018-09-11T06:10:05.058Z,24.2
2018-09-11T06:12:04.773Z,24.2
2018-09-11T06:14:05.529Z,24.2
2018-09-11T06:16:12.860Z,24.3
2018-09-11T06:18:04.904Z,24.2
2018-09-11T06:20:05.570Z,24.3
2018-09-11T06:22:05.308Z,24.3
2018-09-11T06:24:05.030Z,24.3
2018-09-11T06:26:04.718Z,24.3
2018-09-11T06:28:05.402Z,24.3
2018-09-11T06:30:05.103Z,24.4
2018-09-11T06:32:04.765Z,24.4
2018-09-11T06:34:05.448Z,24.4
2018-09-11T06:36:10.179Z,24.5
2018-09-11T06:38:05.470Z,24.5
2018-09-11T06:40:05.186Z,24.5
2018-09-11T06:42:07.383Z,24.5
2018-09-11T06:44:05.709Z,24.5
2018-09-11T06:46:05.485Z,24.5
2018-09-11T06:48:04.723Z,24.5
2018-09-11T06:50:05.004Z,24.6
2018-09-11T06:52:05.218Z,24.6
2018-09-11T06:54:04.909Z,24.7
2018-09-11T06:56:08.143Z,24.7
2018-09-11T06:58:04.871Z,24.7
2018-09-11T07:00:05.606Z,24.7
2018-09-11T07:02:17.988Z,24.7
2018-09-11T07:04:04.750Z,24.7
2018-09-11T07:06:10.559Z,24.7
2018-09-11T07:08:10.284Z,24.8
2018-09-11T07:10:04.925Z,24.8
2018-09-11T07:12:05.055Z,24.8
2018-09-11T07:14:09.813Z,24.8
2018-09-11T07:16:05.486Z,24.8
2018-09-11T07:18:05.420Z,24.9
2018-09-11T07:20:07.961Z,24.9
2018-09-11T07:22:05.360Z,24.9
2018-09-11T07:24:05.043Z,24.9
2018-09-11T07:26:04.872Z,24.9
2018-09-11T07:28:07.408Z,25
2018-09-11T07:30:04.647Z,25
2018-09-11T07:32:05.336Z,25.1
2018-09-11T07:34:05.034Z,25.1
2018-09-11T07:36:04.699Z,25.1
2018-09-11T07:38:13.005Z,25.1
2018-09-11T07:40:05.223Z,25.1
2018-09-11T07:42:07.453Z,25.1
2018-09-11T07:44:05.216Z,25.1
2018-09-11T07:46:05.465Z,25.1
2018-09-11T07:48:07.713Z,25.2
2018-09-11T07:50:05.456Z,25.1
2018-09-11T07:52:05.224Z,25.2
2018-09-11T07:54:04.938Z,25.2
2018-09-11T07:56:07.276Z,25.2
2018-09-11T07:58:05.187Z,25.3
2018-09-11T08:00:05.331Z,25.3
2018-09-11T08:02:05.032Z,25.3
2018-09-11T08:04:07.309Z,25.3
2018-09-11T08:06:07.631Z,25.3
2018-09-11T08:08:05.346Z,25.3
2018-09-11T08:10:07.615Z,25.3
2018-09-11T08:12:05.382Z,25.3
2018-09-11T08:14:05.556Z,25.3
2018-09-11T08:16:05.239Z,25.2
2018-09-11T08:18:04.640Z,25.2
2018-09-11T08:20:05.316Z,25.2
2018-09-11T08:22:07.646Z,25.2
2018-09-11T08:24:05.379Z,25.2
2018-09-11T08:26:05.091Z,25.2
2018-09-11T08:28:04.827Z,25.2
2018-09-11T08:30:05.501Z,25.2
2018-09-11T08:32:05.179Z,25.2
2018-09-11T08:34:04.900Z,25.2
2018-09-11T08:36:05.606Z,25.3
2018-09-11T08:38:04.856Z,25.2
2018-09-11T08:40:05.603Z,25.3
2018-09-11T08:42:04.925Z,25.4
2018-09-11T08:44:07.167Z,25.4
2018-09-11T08:46:04.837Z,25.3
2018-09-11T08:48:05.529Z,25.3
2018-09-11T08:50:05.301Z,25.4
2018-09-11T08:52:07.686Z,25.4
2018-09-11T08:54:04.732Z,25.4
2018-09-11T08:56:05.435Z,25.5
2018-09-11T08:58:05.249Z,25.4
2018-09-11T09:00:04.909Z,25.5
2018-09-11T09:02:05.677Z,25.5
2018-09-11T09:04:05.370Z,25.5
2018-09-11T09:06:04.631Z,25.5
2018-09-11T09:08:05.391Z,25.5
2018-09-11T09:10:05.139Z,25.5
2018-09-11T09:12:07.361Z,25.6
2018-09-11T09:14:10.123Z,25.5
2018-09-11T09:16:04.848Z,25.6
2018-09-11T09:18:05.250Z,25.6
2018-09-11T09:20:12.525Z,25.6
2018-09-11T09:22:05.253Z,25.6
2018-09-11T09:24:04.963Z,25.6
2018-09-11T09:26:04.643Z,25.6
2018-09-11T09:28:05.434Z,25.6
2018-09-11T09:30:07.682Z,25.6
2018-09-11T09:32:04.898Z,25.6
2018-09-11T09:34:05.607Z,25.6
2018-09-11T09:36:05.377Z,25.6
2018-09-11T09:38:05.111Z,25.6
2018-09-11T09:40:04.876Z,25.6
2018-09-11T09:42:08.116Z,25.6
2018-09-11T09:44:05.030Z,25.5
2018-09-11T09:46:05.400Z,25.5
2018-09-11T09:48:05.081Z,25.5
2018-09-11T09:50:07.337Z,25.4
2018-09-11T09:52:05.058Z,25.4
2018-09-11T09:54:04.957Z,25.4
2018-09-11T09:56:04.631Z,25.4
2018-09-11T09:58:05.444Z,25.4
2018-09-11T10:00:07.683Z,25.3
2018-09-11T10:02:04.883Z,25.4
2018-09-11T10:04:10.726Z,25.4
2018-09-11T10:06:05.435Z,25.4
2018-09-11T10:08:05.120Z,25.4
2018-09-11T10:10:04.881Z,25.4
2018-09-11T10:12:05.630Z,25.4
2018-09-11T10:14:05.372Z,25.4
2018-09-11T10:16:10.140Z,25.3
2018-09-11T10:18:07.594Z,25.3
2018-09-11T10:20:05.251Z,25.3
2018-09-11T10:22:04.979Z,25.3
2018-09-11T10:24:04.720Z,25.3
2018-09-11T10:26:05.479Z,25.2
2018-09-11T10:28:05.286Z,25.2
2018-09-11T10:30:05.779Z,25.2
2018-09-11T10:32:07.995Z,25.1
2018-09-11T10:34:04.721Z,25.1
2018-09-11T10:36:05.409Z,25.1
2018-09-11T10:38:07.608Z,25.1
2018-09-11T10:40:07.828Z,25.1
2018-09-11T10:42:10.127Z,25.1
2018-09-11T10:44:04.786Z,25.1
2018-09-11T10:46:05.010Z,25.1
2018-09-11T10:48:09.765Z,25.1
2018-09-11T10:50:05.687Z,25.1
2018-09-11T10:52:04.976Z,25.1
2018-09-11T10:54:12.217Z,25.1
2018-09-11T10:56:05.827Z,25.1
2018-09-11T10:58:05.676Z,25.1
2018-09-11T11:00:05.430Z,25.1
2018-09-11T11:02:05.212Z,25.1
2018-09-11T11:04:04.926Z,25.1
2018-09-11T11:06:05.645Z,25.1
2018-09-11T11:08:05.375Z,25.1
2018-09-11T11:10:10.178Z,25.1
2018-09-11T11:12:04.923Z,25.1
2018-09-11T11:14:05.184Z,25.1
2018-09-11T11:16:04.865Z,25.1
2018-09-11T11:18:04.781Z,25.1
2018-09-11T11:20:05.065Z,25.1
2018-09-11T11:22:07.343Z,25.1
2018-09-11T11:24:05.271Z,25.1
2018-09-11T11:26:05.016Z,25.1
2018-09-11T11:28:05.228Z,25.1
2018-09-11T11:30:05.005Z,25.1
2018-09-11T11:32:04.745Z,25.1
2018-09-11T11:34:07.995Z,25.1
2018-09-11T11:36:04.842Z,25.1
2018-09-11T11:38:07.539Z,25.1
2018-09-11T11:40:05.398Z,25.1
2018-09-11T11:42:05.176Z,25.2
2018-09-11T11:44:05.034Z,25.1
2018-09-11T11:46:05.296Z,25.1
2018-09-11T11:48:12.642Z,25.1
2018-09-11T11:50:07.303Z,25.1
2018-09-11T11:52:10.049Z,25.1
2018-09-11T11:54:09.821Z,25.1
2018-09-11T11:56:08.135Z,25.1
2018-09-11T11:58:12.448Z,25
2018-09-11T12:00:05.115Z,25.1
2018-09-11T12:02:05.001Z,24.9
2018-09-11T12:04:05.534Z,25
2018-09-11T12:06:05.265Z,25
2018-09-11T12:08:05.472Z,25
2018-09-11T12:10:05.218Z,25
2018-09-11T12:12:04.972Z,25.1
2018-09-11T12:14:05.241Z,25.1
2018-09-11T12:16:07.486Z,25.1
2018-09-11T12:18:05.601Z,25.1
2018-09-11T12:20:07.916Z,25.1
2018-09-11T12:22:05.635Z,25.1
2018-09-11T12:24:07.949Z,25.2
2018-09-11T12:26:05.187Z,25.2
2018-09-11T12:28:07.521Z,25.2
2018-09-11T12:30:05.460Z,25.2
2018-09-11T12:32:10.319Z,25.2
2018-09-11T12:34:05.026Z,25.2
2018-09-11T12:36:04.731Z,25.2
2018-09-11T12:38:05.529Z,25.2
2018-09-11T12:40:08.006Z,25.1
2018-09-11T12:42:12.297Z,25.2
2018-09-11T12:44:08.035Z,25.1
2018-09-11T12:46:05.024Z,25.1
2018-09-11T12:48:08.518Z,25
2018-09-11T12:50:04.818Z,24.9
2018-09-11T12:52:05.573Z,25
2018-09-11T12:54:05.249Z,25
2018-09-11T12:56:04.942Z,25.1
2018-09-11T12:58:04.818Z,25
2018-09-11T13:00:05.525Z,25
2018-09-11T13:02:10.268Z,24.9
2018-09-11T13:04:07.490Z,24.9
2018-09-11T13:06:05.183Z,24.9
2018-09-11T13:08:06.143Z,24.8
2018-09-11T13:10:04.895Z,24.9
2018-09-11T13:12:05.563Z,25
2018-09-11T13:14:07.770Z,25.2
2018-09-11T13:16:05.419Z,25.2
2018-09-11T13:18:04.870Z,25.3
2018-09-11T13:20:04.637Z,25.3
2018-09-11T13:22:07.873Z,25.3
2018-09-11T13:24:08.170Z,25.3
2018-09-11T13:26:09.956Z,25.4
2018-09-11T13:28:05.218Z,25.4
2018-09-11T13:30:07.536Z,25.4
2018-09-11T13:32:05.228Z,25.4
2018-09-11T13:34:04.975Z,25.4
2018-09-11T13:36:05.112Z,25.4
2018-09-11T13:38:05.044Z,25.4
2018-09-11T13:40:04.792Z,25.3
2018-09-11T13:42:05.563Z,25.3
2018-09-11T13:44:05.301Z,25.3
2018-09-11T13:46:05.083Z,25.3
2018-09-11T13:48:07.360Z,25.4
2018-09-11T13:50:05.040Z,25.4
2018-09-11T13:52:07.266Z,25.4
2018-09-11T13:54:04.930Z,25.4
2018-09-11T13:56:04.696Z,25.4
2018-09-11T13:58:05.383Z,25.4
2018-09-11T14:00:10.111Z,25.4
2018-09-11T14:02:05.332Z,25.4
2018-09-11T14:04:05.066Z,25.4
2018-09-11T14:06:04.900Z,25.4
2018-09-11T14:08:08.116Z,25.1
2018-09-11T14:10:04.798Z,25.1
2018-09-11T14:12:05.563Z,25.2
2018-09-11T14:14:05.283Z,25.3
2018-09-11T14:16:04.987Z,25.2
2018-09-11T14:18:04.863Z,25.1
2018-09-11T14:20:05.127Z,25.2
2018-09-11T14:22:05.328Z,25.1
2018-09-11T14:24:05.118Z,25.1
2018-09-11T14:26:05.318Z,25.1
2018-09-11T14:28:04.976Z,25.1
2018-09-11T14:30:04.706Z,25.1
2018-09-11T14:32:05.379Z,25.1
2018-09-11T14:34:05.056Z,25.1
2018-09-11T14:36:04.734Z,25.1
2018-09-11T14:38:10.090Z,25.1
2018-09-11T14:40:04.780Z,25.1
2018-09-11T14:42:07.504Z,25
2018-09-11T14:44:05.235Z,25
2018-09-11T14:46:05.434Z,25
2018-09-11T14:48:05.105Z,25.1
2018-09-11T14:50:07.433Z,25.2
2018-09-11T14:52:05.137Z,25.1
2018-09-11T14:54:07.364Z,25.2
2018-09-11T14:56:05.070Z,25.2
2018-09-11T14:58:04.792Z,25.3
2018-09-11T15:00:05.594Z,25.3
2018-09-11T15:02:05.409Z,25.3
2018-09-11T15:04:05.678Z,25.3
2018-09-11T15:06:05.523Z,25.3
2018-09-11T15:08:05.256Z,25.3
2018-09-11T15:10:04.961Z,25.2
2018-09-11T15:12:12.263Z,25.2
2018-09-11T15:14:04.958Z,25.3
2018-09-11T15:16:04.588Z,25.2
2018-09-11T15:18:04.976Z,25.3
2018-09-11T15:20:04.701Z,25.2
2018-09-11T15:22:07.993Z,25.2
2018-09-11T15:24:04.882Z,25.2
2018-09-11T15:26:05.574Z,25.2
2018-09-11T15:28:05.280Z,25.3
2018-09-11T15:30:07.483Z,25.3
2018-09-11T15:32:05.170Z,25.3
2018-09-11T15:34:04.910Z,25.4
2018-09-11T15:36:05.725Z,25.3
2018-09-11T15:38:05.095Z,25.3
2018-09-11T15:40:04.809Z,25.4
2018-09-11T15:42:05.522Z,25.4
2018-09-11T15:44:05.267Z,25.4
2018-09-11T15:46:07.516Z,25.4
2018-09-11T15:48:05.246Z,25.4
2018-09-11T15:50:07.451Z,25.3
2018-09-11T15:52:05.215Z,25.3
2018-09-11T15:54:05.044Z,25.4
2018-09-11T15:56:04.720Z,25.4
2018-09-11T15:58:07.946Z,25.4
2018-09-11T16:00:12.285Z,25.3
2018-09-11T16:02:04.996Z,25.3
2018-09-11T16:04:04.715Z,25.4
2018-09-11T16:06:05.478Z,25.3
2018-09-11T16:08:05.175Z,25.2
2018-09-11T16:10:04.902Z,25.2
2018-09-11T16:12:05.604Z,25.1
2018-09-11T16:14:05.298Z,25.1
2018-09-11T16:16:04.958Z,25.2
2018-09-11T16:18:04.858Z,25.2
2018-09-11T16:20:05.588Z,25.2
2018-09-11T16:22:05.350Z,25.1
2018-09-11T16:24:05.400Z,25.1
2018-09-11T16:26:10.182Z,25.1
2018-09-11T16:28:04.846Z,25
2018-09-11T16:30:09.870Z,25.1
2018-09-11T16:32:05.008Z,25.1
2018-09-11T16:34:04.699Z,25.1
2018-09-11T16:36:07.897Z,25.1
2018-09-11T16:38:05.643Z,25.1
2018-09-11T16:40:10.493Z,25
2018-09-11T16:42:04.798Z,25.1
2018-09-11T16:44:05.550Z,25.1
2018-09-11T16:46:05.248Z,25
2018-09-11T16:48:17.592Z,25.1
2018-09-11T16:50:05.352Z,25.1
2018-09-11T16:52:05.067Z,25.2
2018-09-11T16:54:09.872Z,25.1
2018-09-11T16:56:05.533Z,25.1
2018-09-11T16:58:04.726Z,25.1
2018-09-11T17:00:05.460Z,25.1
2018-09-11T17:02:05.248Z,25.1
2018-09-11T17:04:08.016Z,25.1
2018-09-11T17:06:05.217Z,25.1
2018-09-11T17:08:04.995Z,25.1
2018-09-11T17:10:04.670Z,25.1
2018-09-11T17:12:05.342Z,25.1
2018-09-11T17:14:05.114Z,25.2
2018-09-11T17:16:07.843Z,25.2
2018-09-11T17:18:04.723Z,25.2
2018-09-11T17:20:07.991Z,25.3
2018-09-11T17:22:04.995Z,25.3
2018-09-11T17:24:22.397Z,25.4
2018-09-11T17:26:05.106Z,25.4
2018-09-11T17:28:04.774Z,25.4
2018-09-11T17:30:05.534Z,25.4
2018-09-11T17:32:12.863Z,25.5
2018-09-11T17:34:04.665Z,25.5
2018-09-11T17:36:05.552Z,25.5
2018-09-11T17:38:05.260Z,25.6
2018-09-11T17:40:05.468Z,25.6
2018-09-11T17:42:05.216Z,25.6
2018-09-11T17:44:07.931Z,25.6
2018-09-11T17:46:12.290Z,25.6
2018-09-11T17:48:04.979Z,25.6
2018-09-11T17:50:05.193Z,25.6
2018-09-11T17:52:05.299Z,25.6
2018-09-11T17:54:07.675Z,25.7
2018-09-11T17:56:08.007Z,25.7
2018-09-11T17:58:04.750Z,25.7
2018-09-11T18:00:05.598Z,25.7
2018-09-11T18:02:05.303Z,25.7
2018-09-11T18:04:07.611Z,25.7
2018-09-11T18:06:04.897Z,25.8
2018-09-11T18:08:04.671Z,25.7
2018-09-11T18:10:07.904Z,25.8
2018-09-11T18:12:05.575Z,25.8
2018-09-11T18:14:05.295Z,25.8
2018-09-11T18:16:05.059Z,25.7
2018-09-11T18:18:04.945Z,25.8
2018-09-11T18:20:04.873Z,25.7
2018-09-11T18:22:04.932Z,25.8
2018-09-11T18:24:12.224Z,25.8
2018-09-11T18:26:05.409Z,25.8
2018-09-11T18:28:05.431Z,25.8
2018-09-11T18:30:05.154Z,25.8
2018-09-11T18:32:07.572Z,25.8
2018-09-11T18:34:05.385Z,25.7
2018-09-11T18:36:05.151Z,25.8
2018-09-11T18:38:04.954Z,25.8
2018-09-11T18:40:17.659Z,25.8
2018-09-11T18:42:07.937Z,25.8
2018-09-11T18:44:04.627Z,25.8
2018-09-11T18:46:05.538Z,25.8
2018-09-11T18:48:05.276Z,25.8
2018-09-11T18:50:05.166Z,25.8
2018-09-11T18:52:04.850Z,25.8
2018-09-11T18:54:05.535Z,25.8
2018-09-11T18:56:05.243Z,25.8
2018-09-11T18:58:05.029Z,25.8
2018-09-11T19:00:05.337Z,25.8
2018-09-11T19:02:05.066Z,25.8
2018-09-11T19:04:04.875Z,25.8
2018-09-11T19:06:04.813Z,25.8
2018-09-11T19:08:07.560Z,25.8
2018-09-11T19:10:07.809Z,25.8
2018-09-11T19:12:05.268Z,25.8
2018-09-11T19:14:07.567Z,25.8
2018-09-11T19:16:05.305Z,25.8
2018-09-11T19:18:07.745Z,25.8
2018-09-11T19:20:05.576Z,25.8
2018-09-11T19:22:06.355Z,25.8
2018-09-11T19:24:05.259Z,25.8
2018-09-11T19:26:05.514Z,25.8
2018-09-11T19:28:05.224Z,25.8
2018-09-11T19:30:05.160Z,25.8
2018-09-11T19:32:04.826Z,25.8
2018-09-11T19:34:04.774Z,25.7
2018-09-11T19:36:05.381Z,25.7
2018-09-11T19:38:05.331Z,25.7
2018-09-11T19:40:05.045Z,25.7
2018-09-11T19:42:04.914Z,25.7
2018-09-11T19:44:05.350Z,25.7
2018-09-11T19:46:08.107Z,25.8
2018-09-11T19:48:15.147Z,25.8
2018-09-11T19:50:04.905Z,25.8
2018-09-11T19:52:05.054Z,25.8
2018-09-11T19:54:10.014Z,25.8
2018-09-11T19:56:04.943Z,25.8
2018-09-11T19:58:05.188Z,25.8
2018-09-11T20:00:04.873Z,25.9
2018-09-11T20:02:04.692Z,25.8
2018-09-11T20:04:10.507Z,25.9
2018-09-11T20:06:05.268Z,25.9
2018-09-11T20:08:05.500Z,25.9
2018-09-11T20:10:09.801Z,25.9
2018-09-11T20:12:05.648Z,25.9
2018-09-11T20:14:05.013Z,25.9
2018-09-11T20:16:10.339Z,25.9
2018-09-11T20:18:05.441Z,25.9
2018-09-11T20:20:05.139Z,25.9
2018-09-11T20:22:04.834Z,25.9
2018-09-11T20:24:10.564Z,25.9
2018-09-11T20:26:07.780Z,25.9
2018-09-11T20:28:05.482Z,25.9
2018-09-11T20:30:05.210Z,25.9
2018-09-11T20:32:04.998Z,25.9
2018-09-11T20:34:05.037Z,25.9
2018-09-11T20:36:04.803Z,25.9
2018-09-11T20:38:05.761Z,25.9
2018-09-11T20:40:07.593Z,25.9
2018-09-11T20:42:05.270Z,25.9
2018-09-11T20:44:05.185Z,25.9
2018-09-11T20:46:05.203Z,25.9
2018-09-11T20:48:04.913Z,25.9
2018-09-11T20:50:04.710Z,26
2018-09-11T20:52:05.490Z,25.9
2018-09-11T20:54:05.247Z,25.9
2018-09-11T20:56:05.205Z,25.9
2018-09-11T20:58:07.736Z,25.9
2018-09-11T21:00:05.464Z,25.9
2018-09-11T21:04:08.831Z,25.9
2018-09-11T21:06:07.570Z,25.9
2018-09-11T21:08:05.296Z,25.9
2018-09-11T21:10:04.966Z,25.9
2018-09-11T21:12:07.222Z,25.9
2018-09-11T21:14:04.918Z,25.9
2018-09-11T21:16:08.156Z,25.9
2018-09-11T21:18:05.308Z,25.9
2018-09-11T21:20:04.985Z,25.9
2018-09-11T21:22:04.708Z,25.9
2018-09-11T21:24:07.921Z,25.9
2018-09-11T21:26:05.651Z,25.9
2018-09-11T21:28:05.367Z,25.8
2018-09-11T21:30:05.624Z,25.8
2018-09-11T21:32:05.447Z,25.8
2018-09-11T21:34:05.189Z,25.8
2018-09-11T21:36:10.052Z,25.8
2018-09-11T21:38:04.803Z,25.8
2018-09-11T21:40:05.531Z,25.8
2018-09-11T21:46:30.143Z,25.8
2018-09-11T21:46:41.053Z,25.8
2018-09-11T21:56:07.380Z,25.8
2018-09-11T21:56:07.804Z,25.8
2018-09-11T21:56:17.447Z,25.8
2018-09-11T21:58:05.479Z,25.8
2018-09-11T22:00:07.705Z,25.8
2018-09-11T22:02:04.745Z,25.8
2018-09-11T22:04:10.656Z,25.7
2018-09-11T22:06:05.345Z,25.7
2018-09-11T22:08:05.065Z,25.7
2018-09-11T22:10:04.772Z,25.7
2018-09-11T22:12:20.528Z,25.7
2018-09-11T22:14:04.758Z,25.7
2018-09-11T22:16:07.989Z,25.7
2018-09-11T22:18:04.861Z,25.7
2018-09-11T22:20:05.532Z,25.7
2018-09-11T22:22:05.270Z,25.7
2018-09-11T22:24:07.456Z,25.7
2018-09-11T22:26:07.678Z,25.7
2018-09-11T22:28:05.474Z,25.7
2018-09-11T22:30:05.199Z,25.7
2018-09-11T22:32:04.939Z,25.6
2018-09-11T22:34:05.244Z,25.6
2018-09-11T22:36:05.481Z,25.6
2018-09-11T22:38:05.008Z,25.6
2018-09-11T22:40:04.816Z,25.7
2018-09-11T22:42:05.805Z,25.6
2018-09-11T22:44:08.015Z,25.6
2018-09-11T22:46:05.336Z,25.6
2018-09-11T22:48:05.127Z,25.6
2018-09-11T22:50:04.804Z,25.6
2018-09-11T22:52:05.660Z,25.6
2018-09-11T22:54:05.403Z,25.6
2018-09-11T22:56:05.219Z,25.6
2018-09-11T22:58:04.979Z,25.6
2018-09-11T23:00:04.749Z,25.6
2018-09-11T23:02:05.457Z,25.6
2018-09-11T23:04:10.243Z,25.5
2018-09-11T23:06:10.706Z,25.5
2018-09-11T23:08:07.804Z,25.5
2018-09-11T23:10:05.332Z,25.5
2018-09-11T23:12:05.547Z,25.5
2018-09-11T23:14:04.833Z,25.5
2018-09-11T23:16:08.407Z,25.5
2018-09-11T23:18:05.414Z,25.5
2018-09-11T23:20:04.675Z,25.5
2018-09-11T23:22:05.475Z,25.5
2018-09-11T23:24:05.261Z,25.4
2018-09-11T23:26:04.958Z,25.5
2018-09-11T23:28:04.690Z,25.4
2018-09-11T23:30:05.472Z,25.4
2018-09-11T23:32:05.115Z,25.4
2018-09-11T23:34:07.344Z,25.4
2018-09-11T23:36:05.077Z,25.4
2018-09-11T23:38:04.730Z,25.4
2018-09-11T23:40:05.479Z,25.4
2018-09-11T23:42:10.325Z,25.4
2018-09-11T23:44:07.590Z,25.4
2018-09-11T23:46:05.391Z,25.4
2018-09-11T23:48:07.672Z,25.4
2018-09-11T23:50:05.333Z,25.4
2018-09-11T23:52:10.223Z,25.4
2018-09-11T23:54:04.882Z,25.4
2018-09-11T23:56:05.686Z,25.4
2018-09-11T23:58:05.552Z,25.4
